createdAt,value
2018-01-17T00:00:48.771Z,984.55
2018-01-17T00:01:48.749Z,984.58
2018-01-17T00:02:48.731Z,984.54
2018-01-17T00:03:48.719Z,984.53
2018-01-17T00:04:48.681Z,984.51
2018-01-17T00:05:48.660Z,984.49
2018-01-17T00:06:48.651Z,984.46
2018-01-17T00:07:48.614Z,984.44
2018-01-17T00:08:48.601Z,984.41
2018-01-17T00:09:48.570Z,984.41
2018-01-17T00:10:48.551Z,984.39
2018-01-17T00:11:48.521Z,984.38
2018-01-17T00:12:48.506Z,984.38
2018-01-17T00:13:48.481Z,984.34
2018-01-17T00:14:48.458Z,984.36
2018-01-17T00:15:48.432Z,984.34
2018-01-17T00:16:48.410Z,984.30
2018-01-17T00:17:48.387Z,984.31
2018-01-17T00:18:48.376Z,984.27
2018-01-17T00:19:48.368Z,984.23
2018-01-17T00:20:48.320Z,984.19
2018-01-17T00:21:48.298Z,984.23
2018-01-17T00:22:48.276Z,984.21
2018-01-17T00:23:48.262Z,984.22
2018-01-17T00:24:48.229Z,984.18
2018-01-17T00:25:48.212Z,984.17
2018-01-17T00:26:48.191Z,984.18
2018-01-17T00:27:48.160Z,984.09
2018-01-17T00:28:48.139Z,984.13
2018-01-17T00:29:48.116Z,984.08
2018-01-17T00:30:48.095Z,984.06
2018-01-17T00:31:48.071Z,984.03
2018-01-17T00:32:48.053Z,984.02
2018-01-17T00:33:48.034Z,984.00
2018-01-17T00:34:48.011Z,983.96
2018-01-17T00:35:47.987Z,984.00
2018-01-17T00:36:47.959Z,984.01
2018-01-17T00:37:47.941Z,984.01
2018-01-17T00:38:47.923Z,983.98
2018-01-17T00:39:47.896Z,983.97
2018-01-17T00:40:47.921Z,983.91
2018-01-17T00:41:47.848Z,983.86
2018-01-17T00:42:47.831Z,983.78
2018-01-17T00:43:47.803Z,983.77
2018-01-17T00:44:47.784Z,983.72
2018-01-17T00:45:47.761Z,983.72
2018-01-17T00:46:47.750Z,983.72
2018-01-17T00:47:47.720Z,983.69
2018-01-17T00:48:47.694Z,983.65
2018-01-17T00:49:47.671Z,983.69
2018-01-17T00:50:47.643Z,983.73
2018-01-17T00:51:47.627Z,983.79
2018-01-17T00:52:47.612Z,983.75
2018-01-17T00:53:47.581Z,983.71
2018-01-17T00:54:47.606Z,983.75
2018-01-17T00:55:47.534Z,983.75
2018-01-17T00:56:47.518Z,983.72
2018-01-17T00:57:47.487Z,983.69
2018-01-17T00:58:47.518Z,983.72
2018-01-17T00:59:47.454Z,983.76
2018-01-17T01:00:47.426Z,983.80
2018-01-17T01:01:47.399Z,983.78
2018-01-17T01:02:47.431Z,983.79
2018-01-17T01:03:47.360Z,983.78
2018-01-17T01:04:47.531Z,983.77
2018-01-17T01:05:47.311Z,983.80
2018-01-17T01:06:47.392Z,983.88
2018-01-17T01:07:47.268Z,983.83
2018-01-17T01:08:47.240Z,983.85
2018-01-17T01:09:47.216Z,983.75
2018-01-17T01:10:47.296Z,983.74
2018-01-17T01:11:47.177Z,983.81
2018-01-17T01:12:47.250Z,983.79
2018-01-17T01:13:47.130Z,983.77
2018-01-17T01:14:47.104Z,983.76
2018-01-17T01:15:47.083Z,983.71
2018-01-17T01:16:47.059Z,983.71
2018-01-17T01:17:47.039Z,983.71
2018-01-17T01:18:47.013Z,983.76
2018-01-17T01:19:47.001Z,983.75
2018-01-17T01:20:46.968Z,983.74
2018-01-17T01:21:46.948Z,983.76
2018-01-17T01:22:46.925Z,983.86
2018-01-17T01:23:46.901Z,983.77
2018-01-17T01:24:46.878Z,983.81
2018-01-17T01:25:46.860Z,983.83
2018-01-17T01:26:46.840Z,983.84
2018-01-17T01:27:46.815Z,983.81
2018-01-17T01:28:46.789Z,983.83
2018-01-17T01:29:46.768Z,983.80
2018-01-17T01:30:46.756Z,983.85
2018-01-17T01:31:46.730Z,983.82
2018-01-17T01:32:46.698Z,983.83
2018-01-17T01:33:46.680Z,983.82
2018-01-17T01:34:46.660Z,983.81
2018-01-17T01:35:46.632Z,983.88
2018-01-17T01:36:46.613Z,983.95
2018-01-17T01:37:46.597Z,983.90
2018-01-17T01:38:46.568Z,983.95
2018-01-17T01:39:46.546Z,983.94
2018-01-17T01:40:46.521Z,983.95
2018-01-17T01:41:46.506Z,983.91
2018-01-17T01:42:46.477Z,983.94
2018-01-17T01:43:46.460Z,983.87
2018-01-17T01:44:46.431Z,983.86
2018-01-17T01:45:46.411Z,983.87
2018-01-17T01:46:46.391Z,983.91
2018-01-17T01:47:46.370Z,983.90
2018-01-17T01:48:46.344Z,983.93
2018-01-17T01:49:46.329Z,983.90
2018-01-17T01:50:46.298Z,983.94
2018-01-17T01:51:46.278Z,984.05
2018-01-17T01:52:46.259Z,984.11
2018-01-17T01:53:46.239Z,984.11
2018-01-17T01:54:46.212Z,984.22
2018-01-17T01:55:46.200Z,984.19
2018-01-17T01:56:46.169Z,984.17
2018-01-17T01:57:46.145Z,984.23
2018-01-17T01:58:46.133Z,984.22
2018-01-17T01:59:46.101Z,984.22
2018-01-17T02:00:46.088Z,984.20
2018-01-17T02:01:46.056Z,984.22
2018-01-17T02:02:46.040Z,984.24
2018-01-17T02:03:46.019Z,984.30
2018-01-17T02:04:45.989Z,984.28
2018-01-17T02:05:45.969Z,984.29
2018-01-17T02:06:45.948Z,984.28
2018-01-17T02:07:45.929Z,984.26
2018-01-17T02:08:45.900Z,984.23
2018-01-17T02:09:45.884Z,984.22
2018-01-17T02:10:45.859Z,984.25
2018-01-17T02:11:45.836Z,984.23
2018-01-17T02:12:45.812Z,984.30
2018-01-17T02:13:45.790Z,984.30
2018-01-17T02:14:45.769Z,984.31
2018-01-17T02:15:45.748Z,984.30
2018-01-17T02:16:45.728Z,984.33
2018-01-17T02:17:45.704Z,984.30
2018-01-17T02:18:45.688Z,984.22
2018-01-17T02:19:45.660Z,984.21
2018-01-17T02:20:45.636Z,984.21
2018-01-17T02:21:45.614Z,984.23
2018-01-17T02:22:45.592Z,984.21
2018-01-17T02:23:45.570Z,984.21
2018-01-17T02:24:45.550Z,984.24
2018-01-17T02:25:45.528Z,984.26
2018-01-17T02:26:45.503Z,984.24
2018-01-17T02:27:45.483Z,984.20
2018-01-17T02:28:45.457Z,984.17
2018-01-17T02:29:45.440Z,984.19
2018-01-17T02:30:45.420Z,984.19
2018-01-17T02:31:45.394Z,984.15
2018-01-17T02:32:45.381Z,984.14
2018-01-17T02:33:45.351Z,984.14
2018-01-17T02:34:45.323Z,984.09
2018-01-17T02:35:45.305Z,984.11
2018-01-17T02:36:45.282Z,984.15
2018-01-17T02:37:45.257Z,984.21
2018-01-17T02:38:45.242Z,984.19
2018-01-17T02:39:45.214Z,984.26
2018-01-17T02:40:45.200Z,984.23
2018-01-17T02:41:45.168Z,984.32
2018-01-17T02:42:45.147Z,984.35
2018-01-17T02:43:45.130Z,984.28
2018-01-17T02:44:45.102Z,984.31
2018-01-17T02:45:45.081Z,984.29
2018-01-17T02:46:45.062Z,984.27
2018-01-17T02:47:45.038Z,984.24
2018-01-17T02:48:45.015Z,984.23
2018-01-17T02:49:44.991Z,984.27
2018-01-17T02:50:44.970Z,984.29
2018-01-17T02:51:44.954Z,984.28
2018-01-17T02:52:44.922Z,984.28
2018-01-17T02:53:44.907Z,984.23
2018-01-17T02:54:44.877Z,984.28
2018-01-17T02:55:44.854Z,984.28
2018-01-17T02:56:44.829Z,984.25
2018-01-17T02:57:44.808Z,984.23
2018-01-17T02:58:44.788Z,984.28
2018-01-17T02:59:44.762Z,984.29
2018-01-17T03:00:44.739Z,984.32
2018-01-17T03:01:44.718Z,984.34
2018-01-17T03:02:44.691Z,984.34
2018-01-17T03:03:44.669Z,984.37
2018-01-17T03:04:44.649Z,984.37
2018-01-17T03:05:44.629Z,984.35
2018-01-17T03:06:44.603Z,984.43
2018-01-17T03:07:44.578Z,984.42
2018-01-17T03:08:44.556Z,984.45
2018-01-17T03:09:44.536Z,984.43
2018-01-17T03:10:44.511Z,984.47
2018-01-17T03:11:44.490Z,984.43
2018-01-17T03:12:44.466Z,984.41
2018-01-17T03:13:44.447Z,984.40
2018-01-17T03:14:44.423Z,984.40
2018-01-17T03:15:44.399Z,984.42
2018-01-17T03:16:44.373Z,984.45
2018-01-17T03:17:44.402Z,984.50
2018-01-17T03:18:44.331Z,984.56
2018-01-17T03:19:44.361Z,984.54
2018-01-17T03:20:44.279Z,984.56
2018-01-17T03:21:44.260Z,984.53
2018-01-17T03:22:44.238Z,984.55
2018-01-17T03:23:44.263Z,984.53
2018-01-17T03:24:44.189Z,984.60
2018-01-17T03:25:44.168Z,984.57
2018-01-17T03:26:44.143Z,984.59
2018-01-17T03:27:44.177Z,984.59
2018-01-17T03:28:44.098Z,984.53
2018-01-17T03:29:44.129Z,984.54
2018-01-17T03:30:44.060Z,984.52
2018-01-17T03:31:44.092Z,984.55
2018-01-17T03:32:44.022Z,984.56
2018-01-17T03:33:44.035Z,984.55
2018-01-17T03:34:43.963Z,984.57
2018-01-17T03:35:44.018Z,984.62
2018-01-17T03:36:43.919Z,984.68
2018-01-17T03:37:43.894Z,984.60
2018-01-17T03:38:43.869Z,984.61
2018-01-17T03:39:43.899Z,984.62
2018-01-17T03:40:43.820Z,984.71
2018-01-17T03:41:43.808Z,984.76
2018-01-17T03:42:43.783Z,984.77
2018-01-17T03:43:43.762Z,984.76
2018-01-17T03:44:43.728Z,984.80
2018-01-17T03:45:43.856Z,984.78
2018-01-17T03:46:43.688Z,984.72
2018-01-17T03:47:43.662Z,984.78
2018-01-17T03:48:43.639Z,984.72
2018-01-17T03:49:43.614Z,984.80
2018-01-17T03:50:43.594Z,984.77
2018-01-17T03:51:43.618Z,984.81
2018-01-17T03:52:43.548Z,984.81
2018-01-17T03:53:43.523Z,984.79
2018-01-17T03:54:43.499Z,984.79
2018-01-17T03:55:43.481Z,984.79
2018-01-17T03:56:43.454Z,984.82
2018-01-17T03:57:43.434Z,984.80
2018-01-17T03:58:43.408Z,984.81
2018-01-17T03:59:43.388Z,984.85
2018-01-17T04:00:43.368Z,984.80
2018-01-17T04:01:43.339Z,984.77
2018-01-17T04:02:43.320Z,984.86
2018-01-17T04:03:43.295Z,984.86
2018-01-17T04:04:43.271Z,984.84
2018-01-17T04:05:43.249Z,984.77
2018-01-17T04:06:43.228Z,984.76
2018-01-17T04:07:43.201Z,984.75
2018-01-17T04:08:43.181Z,984.72
2018-01-17T04:09:43.160Z,984.71
2018-01-17T04:10:43.134Z,984.69
2018-01-17T04:11:43.112Z,984.75
2018-01-17T04:12:43.088Z,984.78
2018-01-17T04:13:43.073Z,984.80
2018-01-17T04:14:43.045Z,984.83
2018-01-17T04:15:43.019Z,984.90
2018-01-17T04:16:42.993Z,984.88
2018-01-17T04:17:42.980Z,984.89
2018-01-17T04:18:42.948Z,984.90
2018-01-17T04:19:42.929Z,984.88
2018-01-17T04:20:42.906Z,984.91
2018-01-17T04:21:42.881Z,984.90
2018-01-17T04:22:42.858Z,984.96
2018-01-17T04:23:42.833Z,984.97
2018-01-17T04:24:42.813Z,984.98
2018-01-17T04:25:42.792Z,985.02
2018-01-17T04:26:42.773Z,985.01
2018-01-17T04:27:42.745Z,985.03
2018-01-17T04:28:42.730Z,985.06
2018-01-17T04:29:42.708Z,985.06
2018-01-17T04:30:42.677Z,985.09
2018-01-17T04:31:42.661Z,985.10
2018-01-17T04:32:42.629Z,985.17
2018-01-17T04:33:42.609Z,985.14
2018-01-17T04:34:42.592Z,985.11
2018-01-17T04:35:42.561Z,985.17
2018-01-17T04:36:42.541Z,985.16
2018-01-17T04:37:42.512Z,985.11
2018-01-17T04:38:42.498Z,985.21
2018-01-17T04:39:42.469Z,985.16
2018-01-17T04:40:42.449Z,985.13
2018-01-17T04:41:42.421Z,985.15
2018-01-17T04:42:42.398Z,985.16
2018-01-17T04:43:42.376Z,985.14
2018-01-17T04:44:42.355Z,985.18
2018-01-17T04:45:42.374Z,985.15
2018-01-17T04:46:42.308Z,985.23
2018-01-17T04:47:42.288Z,985.18
2018-01-17T04:48:42.264Z,985.22
2018-01-17T04:49:42.241Z,985.21
2018-01-17T04:50:42.216Z,985.28
2018-01-17T04:51:42.194Z,985.33
2018-01-17T04:52:42.173Z,985.37
2018-01-17T04:53:42.148Z,985.34
2018-01-17T04:54:42.129Z,985.31
2018-01-17T04:55:42.108Z,985.31
2018-01-17T04:56:42.079Z,985.33
2018-01-17T04:57:42.056Z,985.39
2018-01-17T04:58:42.036Z,985.48
2018-01-17T04:59:42.014Z,985.40
2018-01-17T05:00:41.988Z,985.44
2018-01-17T05:01:41.966Z,985.52
2018-01-17T05:02:41.942Z,985.49
2018-01-17T05:03:41.921Z,985.52
2018-01-17T05:04:41.899Z,985.51
2018-01-17T05:05:41.880Z,985.54
2018-01-17T05:06:41.856Z,985.55
2018-01-17T05:07:41.829Z,985.55
2018-01-17T05:08:41.805Z,985.55
2018-01-17T05:09:41.783Z,985.54
2018-01-17T05:10:41.759Z,985.60
2018-01-17T05:11:41.737Z,985.60
2018-01-17T05:12:41.711Z,985.69
2018-01-17T05:13:41.689Z,985.66
2018-01-17T05:14:41.663Z,985.66
2018-01-17T05:15:41.648Z,985.68
2018-01-17T05:16:41.622Z,985.72
2018-01-17T05:17:41.598Z,985.68
2018-01-17T05:18:41.625Z,985.69
2018-01-17T05:19:41.554Z,985.70
2018-01-17T05:20:41.528Z,985.76
2018-01-17T05:21:41.507Z,985.73
2018-01-17T05:22:41.486Z,985.79
2018-01-17T05:23:41.460Z,985.78
2018-01-17T05:24:41.434Z,985.83
2018-01-17T05:25:41.411Z,985.86
2018-01-17T05:26:41.388Z,985.87
2018-01-17T05:27:41.368Z,985.88
2018-01-17T05:28:41.349Z,985.88
2018-01-17T05:29:41.318Z,985.81
2018-01-17T05:30:41.296Z,985.85
2018-01-17T05:31:41.287Z,985.91
2018-01-17T05:32:41.249Z,985.92
2018-01-17T05:33:41.228Z,985.89
2018-01-17T05:34:41.202Z,985.93
2018-01-17T05:35:41.182Z,985.90
2018-01-17T05:36:41.158Z,985.96
2018-01-17T05:37:41.133Z,985.96
2018-01-17T05:38:41.117Z,985.92
2018-01-17T05:39:41.088Z,985.94
2018-01-17T05:40:41.065Z,985.86
2018-01-17T05:41:41.042Z,985.87
2018-01-17T05:42:41.018Z,985.93
2018-01-17T05:43:40.994Z,985.88
2018-01-17T05:44:40.978Z,985.97
2018-01-17T05:45:40.952Z,985.93
2018-01-17T05:46:40.979Z,985.93
2018-01-17T05:47:40.910Z,985.99
2018-01-17T05:48:40.886Z,985.96
2018-01-17T05:49:40.856Z,986.00
2018-01-17T05:50:40.893Z,986.01
2018-01-17T05:51:40.819Z,986.03
2018-01-17T05:52:40.799Z,986.10
2018-01-17T05:53:40.769Z,986.05
2018-01-17T05:54:40.895Z,986.01
2018-01-17T05:55:40.729Z,986.01
2018-01-17T05:56:40.703Z,986.07
2018-01-17T05:57:40.677Z,986.06
2018-01-17T05:58:40.664Z,986.11
2018-01-17T05:59:40.632Z,986.15
2018-01-17T06:00:40.609Z,986.14
2018-01-17T06:01:40.581Z,986.17
2018-01-17T06:02:40.675Z,986.21
2018-01-17T06:03:40.542Z,986.23
2018-01-17T06:04:40.513Z,986.27
2018-01-17T06:05:40.484Z,986.27
2018-01-17T06:06:40.512Z,986.26
2018-01-17T06:07:40.449Z,986.29
2018-01-17T06:08:40.510Z,986.35
2018-01-17T06:09:40.392Z,986.32
2018-01-17T06:10:40.492Z,986.36
2018-01-17T06:11:40.348Z,986.36
2018-01-17T06:12:40.328Z,986.37
2018-01-17T06:13:40.315Z,986.44
2018-01-17T06:14:40.280Z,986.41
2018-01-17T06:15:40.259Z,986.49
2018-01-17T06:16:40.236Z,986.47
2018-01-17T06:17:40.216Z,986.53
2018-01-17T06:18:40.192Z,986.46
2018-01-17T06:19:40.168Z,986.49
2018-01-17T06:20:40.147Z,986.58
2018-01-17T06:21:40.118Z,986.54
2018-01-17T06:22:40.098Z,986.55
2018-01-17T06:23:40.075Z,986.56
2018-01-17T06:24:40.049Z,986.64
2018-01-17T06:25:40.030Z,986.58
2018-01-17T06:26:40.008Z,986.63
2018-01-17T06:27:39.983Z,986.60
2018-01-17T06:28:39.958Z,986.69
2018-01-17T06:29:39.939Z,986.73
2018-01-17T06:30:39.919Z,986.70
2018-01-17T06:31:39.889Z,986.71
2018-01-17T06:32:39.868Z,986.75
2018-01-17T06:33:39.844Z,986.84
2018-01-17T06:34:39.827Z,986.86
2018-01-17T06:35:39.799Z,986.87
2018-01-17T06:36:39.775Z,986.86
2018-01-17T06:37:39.752Z,986.91
2018-01-17T06:38:39.730Z,986.89
2018-01-17T06:39:39.705Z,986.87
2018-01-17T06:40:39.688Z,986.95
2018-01-17T06:41:39.660Z,986.97
2018-01-17T06:42:39.640Z,987.00
2018-01-17T06:43:39.619Z,987.00
2018-01-17T06:44:39.598Z,987.02
2018-01-17T06:45:39.569Z,987.02
2018-01-17T06:46:39.557Z,987.10
2018-01-17T06:47:39.525Z,987.07
2018-01-17T06:48:39.499Z,987.07
2018-01-17T06:49:39.477Z,987.04
2018-01-17T06:50:39.457Z,987.08
2018-01-17T06:51:39.427Z,987.09
2018-01-17T06:52:39.409Z,987.14
2018-01-17T06:53:39.384Z,987.18
2018-01-17T06:54:39.363Z,987.19
2018-01-17T06:55:39.340Z,987.19
2018-01-17T06:56:39.319Z,987.26
2018-01-17T06:57:39.292Z,987.24
2018-01-17T06:58:39.269Z,987.31
2018-01-17T06:59:39.248Z,987.32
2018-01-17T07:00:39.227Z,987.41
2018-01-17T07:01:39.197Z,987.38
2018-01-17T07:02:39.181Z,987.42
2018-01-17T07:03:39.158Z,987.44
2018-01-17T07:04:39.133Z,987.50
2018-01-17T07:05:39.120Z,987.52
2018-01-17T07:06:39.088Z,987.50
2018-01-17T07:07:39.065Z,987.55
2018-01-17T07:08:39.041Z,987.54
2018-01-17T07:09:39.018Z,987.51
2018-01-17T07:10:38.997Z,987.53
2018-01-17T07:11:38.969Z,987.58
2018-01-17T07:12:38.949Z,987.58
2018-01-17T07:13:38.925Z,987.61
2018-01-17T07:14:38.908Z,987.78
2018-01-17T07:15:38.881Z,987.65
2018-01-17T07:16:38.868Z,987.75
2018-01-17T07:17:38.839Z,987.76
2018-01-17T07:18:38.808Z,987.78
2018-01-17T07:19:38.840Z,987.76
2018-01-17T07:20:38.763Z,987.83
2018-01-17T07:21:38.739Z,987.83
2018-01-17T07:22:38.718Z,987.88
2018-01-17T07:23:38.699Z,987.92
2018-01-17T07:24:38.668Z,987.99
2018-01-17T07:25:38.648Z,987.98
2018-01-17T07:26:38.665Z,988.09
2018-01-17T07:27:38.618Z,988.11
2018-01-17T07:28:38.582Z,988.04
2018-01-17T07:29:38.560Z,988.11
2018-01-17T07:30:38.535Z,988.10
2018-01-17T07:31:38.513Z,988.22
2018-01-17T07:32:38.488Z,988.07
2018-01-17T07:33:38.464Z,988.17
2018-01-17T07:34:38.438Z,988.24
2018-01-17T07:35:38.424Z,988.18
2018-01-17T07:36:38.401Z,988.29
2018-01-17T07:37:38.370Z,988.18
2018-01-17T07:38:38.351Z,988.22
2018-01-17T07:39:38.334Z,988.26
2018-01-17T07:40:38.300Z,988.27
2018-01-17T07:41:38.292Z,988.21
2018-01-17T07:42:38.264Z,988.28
2018-01-17T07:43:38.235Z,988.28
2018-01-17T07:44:38.229Z,988.36
2018-01-17T07:45:38.194Z,988.38
2018-01-17T07:46:38.181Z,988.33
2018-01-17T07:47:38.139Z,988.42
2018-01-17T07:48:38.116Z,988.48
2018-01-17T07:49:38.125Z,988.49
2018-01-17T07:50:38.069Z,988.59
2018-01-17T07:51:38.053Z,988.57
2018-01-17T07:52:38.025Z,988.59
2018-01-17T07:53:37.998Z,988.62
2018-01-17T07:54:37.976Z,988.62
2018-01-17T07:55:37.959Z,988.64
2018-01-17T07:56:37.937Z,988.72
2018-01-17T07:57:37.912Z,988.82
2018-01-17T07:58:37.911Z,988.79
2018-01-17T07:59:37.877Z,988.86
2018-01-17T08:00:37.842Z,988.86
2018-01-17T08:01:37.823Z,988.80
2018-01-17T08:02:37.797Z,988.82
2018-01-17T08:03:37.771Z,988.85
2018-01-17T08:04:37.751Z,988.86
2018-01-17T08:05:37.729Z,988.91
2018-01-17T08:06:37.704Z,988.98
2018-01-17T08:07:37.689Z,989.01
2018-01-17T08:08:37.659Z,989.09
2018-01-17T08:09:37.643Z,989.11
2018-01-17T08:10:37.615Z,989.10
2018-01-17T08:11:37.599Z,989.08
2018-01-17T08:12:37.566Z,989.12
2018-01-17T08:13:37.642Z,989.12
2018-01-17T08:14:37.520Z,989.06
2018-01-17T08:15:37.496Z,989.20
2018-01-17T08:16:37.480Z,989.16
2018-01-17T08:17:37.456Z,989.21
2018-01-17T08:18:37.440Z,989.26
2018-01-17T08:19:37.408Z,989.24
2018-01-17T08:20:37.379Z,989.23
2018-01-17T08:21:37.360Z,989.26
2018-01-17T08:22:37.337Z,989.25
2018-01-17T08:23:37.313Z,989.31
2018-01-17T08:24:37.293Z,989.32
2018-01-17T08:25:37.275Z,989.33
2018-01-17T08:26:37.250Z,989.43
2018-01-17T08:27:37.228Z,989.48
2018-01-17T08:28:37.200Z,989.46
2018-01-17T08:29:37.182Z,989.41
2018-01-17T08:30:37.168Z,989.45
2018-01-17T08:31:37.151Z,989.50
2018-01-17T08:32:37.108Z,989.57
2018-01-17T08:33:37.084Z,989.53
2018-01-17T08:34:37.059Z,989.60
2018-01-17T08:35:37.040Z,989.59
2018-01-17T08:36:37.012Z,989.69
2018-01-17T08:37:36.991Z,989.68
2018-01-17T08:38:36.965Z,989.79
2018-01-17T08:39:36.942Z,989.81
2018-01-17T08:40:36.921Z,989.86
2018-01-17T08:41:36.896Z,989.94
2018-01-17T08:42:36.879Z,989.91
2018-01-17T08:43:36.858Z,989.91
2018-01-17T08:44:36.832Z,989.83
2018-01-17T08:45:36.805Z,989.82
2018-01-17T08:46:36.781Z,989.87
2018-01-17T08:47:36.759Z,989.92
2018-01-17T08:48:36.738Z,989.92
2018-01-17T08:49:36.714Z,989.97
2018-01-17T08:50:36.696Z,989.87
2018-01-17T08:51:36.669Z,989.88
2018-01-17T08:52:36.650Z,989.86
2018-01-17T08:53:36.828Z,989.86
2018-01-17T08:54:36.597Z,989.86
2018-01-17T08:55:36.578Z,989.90
2018-01-17T08:56:36.558Z,989.87
2018-01-17T08:57:36.528Z,989.87
2018-01-17T08:58:36.509Z,989.87
2018-01-17T08:59:36.484Z,989.94
2018-01-17T09:00:36.458Z,989.96
2018-01-17T09:01:36.434Z,989.96
2018-01-17T09:02:36.413Z,990.07
2018-01-17T09:03:36.399Z,990.09
2018-01-17T09:04:36.371Z,990.08
2018-01-17T09:05:36.353Z,990.16
2018-01-17T09:06:36.330Z,990.21
2018-01-17T09:07:36.300Z,990.24
2018-01-17T09:08:36.281Z,990.23
2018-01-17T09:09:36.260Z,990.27
2018-01-17T09:10:36.230Z,990.22
2018-01-17T09:11:36.209Z,990.19
2018-01-17T09:12:36.184Z,990.23
2018-01-17T09:13:36.167Z,990.30
2018-01-17T09:14:36.140Z,990.35
2018-01-17T09:15:36.122Z,990.34
2018-01-17T09:16:36.102Z,990.39
2018-01-17T09:17:36.069Z,990.41
2018-01-17T09:18:36.047Z,990.36
2018-01-17T09:19:36.030Z,990.39
2018-01-17T09:20:36.011Z,990.37
2018-01-17T09:21:35.980Z,990.41
2018-01-17T09:22:35.960Z,990.41
2018-01-17T09:23:35.949Z,990.38
2018-01-17T09:24:35.917Z,990.40
2018-01-17T09:25:35.890Z,990.40
2018-01-17T09:26:35.870Z,990.47
2018-01-17T09:27:35.854Z,990.44
2018-01-17T09:28:35.820Z,990.44
2018-01-17T09:29:35.804Z,990.51
2018-01-17T09:30:35.775Z,990.56
2018-01-17T09:31:35.761Z,990.64
2018-01-17T09:32:35.791Z,990.58
2018-01-17T09:33:35.708Z,990.59
2018-01-17T09:34:35.691Z,990.65
2018-01-17T09:35:35.671Z,990.68
2018-01-17T09:36:35.640Z,990.72
2018-01-17T09:37:35.618Z,990.79
2018-01-17T09:38:35.606Z,990.79
2018-01-17T09:39:35.568Z,990.79
2018-01-17T09:40:35.549Z,990.77
2018-01-17T09:41:35.527Z,990.86
2018-01-17T09:42:35.552Z,991.08
2018-01-17T09:43:35.491Z,991.22
2018-01-17T09:44:35.560Z,991.31
2018-01-17T09:45:35.441Z,991.41
2018-01-17T09:46:35.422Z,991.67
2018-01-17T09:47:35.401Z,991.67
2018-01-17T09:48:35.400Z,991.72
2018-01-17T09:49:35.360Z,991.23
2018-01-17T09:50:35.351Z,992.38
2018-01-17T09:51:35.320Z,992.37
2018-01-17T09:52:35.323Z,991.35
2018-01-17T09:53:35.279Z,991.23
2018-01-17T09:54:35.313Z,992.68
2018-01-17T09:55:35.239Z,991.34
2018-01-17T09:56:35.270Z,991.32
2018-01-17T09:57:35.202Z,991.25
2018-01-17T09:58:35.179Z,991.24
2018-01-17T09:59:35.161Z,991.19
2018-01-17T10:00:35.140Z,991.16
2018-01-17T10:01:35.119Z,991.23
2018-01-17T10:02:35.100Z,991.35
2018-01-17T10:03:35.083Z,991.49
2018-01-17T10:04:35.060Z,991.41
2018-01-17T10:05:35.044Z,991.37
2018-01-17T10:06:35.023Z,991.49
2018-01-17T10:07:35.013Z,991.41
2018-01-17T10:08:34.979Z,991.48
2018-01-17T10:09:34.960Z,992.20
2018-01-17T10:10:34.964Z,991.50
2018-01-17T10:11:34.921Z,991.58
2018-01-17T10:12:34.906Z,991.48
2018-01-17T10:13:34.890Z,991.52
2018-01-17T10:14:34.869Z,991.36
2018-01-17T10:15:34.845Z,991.51
2018-01-17T10:16:34.827Z,991.40
2018-01-17T10:17:34.806Z,991.47
2018-01-17T10:18:34.808Z,991.46
2018-01-17T10:19:34.768Z,991.44
2018-01-17T10:20:34.746Z,991.37
2018-01-17T10:21:34.731Z,991.43
2018-01-17T10:22:34.709Z,991.49
2018-01-17T10:23:34.683Z,991.49
2018-01-17T10:24:34.661Z,991.46
2018-01-17T10:25:34.638Z,991.50
2018-01-17T10:26:34.617Z,991.72
2018-01-17T10:27:34.598Z,991.97
2018-01-17T10:28:34.576Z,991.72
2018-01-17T10:29:34.557Z,991.83
2018-01-17T10:30:34.540Z,992.30
2018-01-17T10:31:34.527Z,991.79
2018-01-17T10:32:34.498Z,992.22
2018-01-17T10:33:34.474Z,991.64
2018-01-17T10:34:34.460Z,992.22
2018-01-17T10:35:34.435Z,991.92
2018-01-17T10:36:34.414Z,992.01
2018-01-17T10:37:34.399Z,992.64
2018-01-17T10:38:34.387Z,992.69
2018-01-17T10:39:34.359Z,992.42
2018-01-17T10:40:34.390Z,992.76
2018-01-17T10:41:34.322Z,992.69
2018-01-17T10:42:34.403Z,992.56
2018-01-17T10:43:34.292Z,992.77
2018-01-17T10:44:34.276Z,992.77
2018-01-17T10:45:34.254Z,992.69
2018-01-17T10:46:34.238Z,992.18
2018-01-17T10:47:34.223Z,991.77
2018-01-17T10:48:34.208Z,991.87
2018-01-17T10:49:34.188Z,991.78
2018-01-17T10:50:34.269Z,991.83
2018-01-17T10:51:34.162Z,991.90
2018-01-17T10:52:34.188Z,992.03
2018-01-17T10:53:34.124Z,992.29
2018-01-17T10:54:34.159Z,992.55
2018-01-17T10:55:34.095Z,992.16
2018-01-17T10:56:34.073Z,992.05
2018-01-17T10:57:34.053Z,992.53
2018-01-17T10:58:34.135Z,992.26
2018-01-17T10:59:34.017Z,991.95
2018-01-17T11:00:34.008Z,992.39
2018-01-17T11:01:33.988Z,992.03
2018-01-17T11:02:33.966Z,992.16
2018-01-17T11:03:33.950Z,992.02
2018-01-17T11:04:33.952Z,991.93
2018-01-17T11:05:33.914Z,991.94
2018-01-17T11:06:33.898Z,991.83
2018-01-17T11:07:33.877Z,991.84
2018-01-17T11:08:33.959Z,991.93
2018-01-17T11:09:33.839Z,991.83
2018-01-17T11:10:33.868Z,991.91
2018-01-17T11:11:33.814Z,991.84
2018-01-17T11:12:33.787Z,991.87
2018-01-17T11:13:33.763Z,991.99
2018-01-17T11:14:33.799Z,991.81
2018-01-17T11:15:33.729Z,991.83
2018-01-17T11:16:33.716Z,991.82
2018-01-17T11:17:33.694Z,991.92
2018-01-17T11:18:33.718Z,991.88
2018-01-17T11:19:33.648Z,991.80
2018-01-17T11:20:33.626Z,991.86
2018-01-17T11:21:33.608Z,991.85
2018-01-17T11:22:33.624Z,991.91
2018-01-17T11:23:33.567Z,991.80
2018-01-17T11:24:33.553Z,991.77
2018-01-17T11:25:33.530Z,991.79
2018-01-17T11:26:33.506Z,991.74
2018-01-17T11:27:33.482Z,991.73
2018-01-17T11:28:33.465Z,991.88
2018-01-17T11:29:33.439Z,991.84
2018-01-17T11:30:33.432Z,991.88
2018-01-17T11:31:33.406Z,991.88
2018-01-17T11:32:33.380Z,991.91
2018-01-17T11:33:33.362Z,991.88
2018-01-17T11:34:33.330Z,991.86
2018-01-17T11:35:33.313Z,991.83
2018-01-17T11:36:33.290Z,991.89
2018-01-17T11:37:33.269Z,991.92
2018-01-17T11:38:33.247Z,991.89
2018-01-17T11:39:33.231Z,991.88
2018-01-17T11:40:33.213Z,991.85
2018-01-17T11:41:33.188Z,991.88
2018-01-17T11:42:33.161Z,991.83
2018-01-17T11:43:33.143Z,991.81
2018-01-17T11:44:33.117Z,991.86
2018-01-17T11:45:33.095Z,991.84
2018-01-17T11:46:33.079Z,991.87
2018-01-17T11:47:33.061Z,991.81
2018-01-17T11:48:33.035Z,991.73
2018-01-17T11:49:33.012Z,991.84
2018-01-17T11:50:32.994Z,991.79
2018-01-17T11:51:32.967Z,991.82
2018-01-17T11:52:32.953Z,991.75
2018-01-17T11:53:32.931Z,991.75
2018-01-17T11:54:32.901Z,991.75
2018-01-17T11:55:32.878Z,991.74
2018-01-17T11:56:32.860Z,991.75
2018-01-17T11:57:32.837Z,991.67
2018-01-17T11:58:32.815Z,991.69
2018-01-17T11:59:32.802Z,991.73
2018-01-17T12:00:32.774Z,991.68
2018-01-17T12:01:32.751Z,991.64
2018-01-17T12:02:32.741Z,991.70
2018-01-17T12:03:32.711Z,991.71
2018-01-17T12:04:32.689Z,991.65
2018-01-17T12:05:32.662Z,991.72
2018-01-17T12:06:32.650Z,991.64
2018-01-17T12:07:32.622Z,991.74
2018-01-17T12:08:32.676Z,991.72
2018-01-17T12:09:32.575Z,991.71
2018-01-17T12:10:32.564Z,991.78
2018-01-17T12:11:32.538Z,991.66
2018-01-17T12:12:32.535Z,991.69
2018-01-17T12:13:32.492Z,991.68
2018-01-17T12:14:32.492Z,991.66
2018-01-17T12:15:32.448Z,991.70
2018-01-17T12:16:32.431Z,991.66
2018-01-17T12:17:32.403Z,991.69
2018-01-17T12:18:32.397Z,991.65
2018-01-17T12:19:32.361Z,991.68
2018-01-17T12:20:32.347Z,991.68
2018-01-17T12:21:32.320Z,991.67
2018-01-17T12:22:32.298Z,991.71
2018-01-17T12:23:32.270Z,991.71
2018-01-17T12:24:32.248Z,991.69
2018-01-17T12:25:32.230Z,991.78
2018-01-17T12:26:32.208Z,991.85
2018-01-17T12:27:32.186Z,991.85
2018-01-17T12:28:32.161Z,991.84